Time;durP1;ratioP1;P1;durP2;ratioP2;P2;SDS_P1;SDS_P2;PMS_P1;PMS_P2;Temp;Humidity;BMP_temperature;BMP_pressure;BME280_temperature;BME280_humidity;BME280_pressure;Samples;Min_cycle;Max_cycle;Signal;HPM_P1;HPM_P2
2021/11/26 00:02:19;;;;;;;;;8.50;8.50;;;;;;;;5058133;27;45497;-83
2021/11/26 00:04:44;;;;;;;;;8.00;6.25;;;;;;;;5058358;28;45404;-81
2021/11/26 00:07:10;;;;;;;;;7.75;7.50;;;;;;;;5058589;28;45383;-81
2021/11/26 00:09:35;;;;;;;;;9.00;8.50;;;;;;;;5058569;28;46366;-83
2021/11/26 00:12:01;;;;;;;;;11.25;8.75;;;;;;;;5057653;28;45458;-83
2021/11/26 00:14:29;;;;;;;;;9.25;8.50;;;;;;;;5058729;28;45682;-83
2021/11/26 00:16:58;;;;;;;;;8.50;8.00;;;;;;;;5058508;28;45620;-82
2021/11/26 00:19:24;;;;;;;;;6.50;6.50;;;;;;;;5058592;27;45482;-83
2021/11/26 00:21:49;;;;;;;;;7.00;7.00;;;;;;;;5058608;28;45457;-84
2021/11/26 00:24:14;;;;;;;;;8.75;8.75;;;;;;;;5042815;28;45360;-82
2021/11/26 00:26:40;;;;;;;;;9.75;8.50;;;;;;;;5044778;28;45662;-83
2021/11/26 00:29:05;;;;;;;;;9.50;8.00;;;;;;;;5058262;28;45458;-83
2021/11/26 00:31:31;;;;;;;;;11.50;9.75;;;;;;;;5057827;28;45378;-82
2021/11/26 00:33:56;;;;;;;;;11.25;9.00;;;;;;;;5058239;28;45472;-83
2021/11/26 00:36:22;;;;;;;;;10.25;9.00;;;;;;;;5057850;28;45292;-83
2021/11/26 00:38:47;;;;;;;;;7.75;7.75;;;;;;;;5057248;28;47335;-84
2021/11/26 00:41:12;;;;;;;;;10.50;8.00;;;;;;;;5058115;28;45450;-83
2021/11/26 00:43:38;;;;;;;;;8.50;8.00;;;;;;;;5058263;28;45336;-83
2021/11/26 00:46:03;;;;;;;;;12.75;9.00;;;;;;;;5039739;28;45445;-83
2021/11/26 00:48:28;;;;;;;;;11.25;9.75;;;;;;;;5058408;27;46872;-83
2021/11/26 00:50:53;;;;;;;;;8.50;8.50;;;;;;;;5058504;28;45480;-82
2021/11/26 00:53:19;;;;;;;;;5.75;5.25;;;;;;;;5058607;28;45513;-83
2021/11/26 00:55:44;;;;;;;;;13.25;8.00;;;;;;;;5062693;28;45464;-83
2021/11/26 00:58:09;;;;;;;;;9.00;6.75;;;;;;;;5072385;28;45346;-82
2021/11/26 01:00:37;;;;;;;;;7.00;7.00;;;;;;;;5061698;28;45322;-83
2021/11/26 01:03:05;;;;;;;;;7.75;7.00;;;;;;;;5057856;28;45475;-82
2021/11/26 01:05:30;;;;;;;;;13.50;12.25;;;;;;;;5057851;28;45441;-83
2021/11/26 01:07:55;;;;;;;;;8.50;8.50;;;;;;;;5057884;27;45381;-83
2021/11/26 01:10:21;;;;;;;;;6.50;5.00;;;;;;;;5057662;28;45343;-84
2021/11/26 01:12:47;;;;;;;;;10.50;8.25;;;;;;;;5057793;28;45592;-83
2021/11/26 01:15:14;;;;;;;;;9.50;8.50;;;;;;;;5056658;28;45259;-83
2021/11/26 01:17:41;;;;;;;;;12.00;9.00;;;;;;;;5057134;28;46166;-83
2021/11/26 01:20:07;;;;;;;;;10.75;9.00;;;;;;;;5057422;28;45351;-83
2021/11/26 01:22:33;;;;;;;;;6.50;6.25;;;;;;;;5057881;28;45293;-82
2021/11/26 01:24:58;;;;;;;;;11.00;9.75;;;;;;;;5057631;28;45432;-82
2021/11/26 01:27:23;;;;;;;;;7.75;7.75;;;;;;;;5057736;28;46476;-83
2021/11/26 01:29:48;;;;;;;;;12.25;9.75;;;;;;;;5056529;28;45407;-83
2021/11/26 01:32:14;;;;;;;;;10.50;7.25;;;;;;;;5057488;28;45272;-83
2021/11/26 01:34:39;;;;;;;;;11.00;10.00;;;;;;;;5057017;28;45288;-83
2021/11/26 01:37:04;;;;;;;;;5.50;5.50;;;;;;;;5038965;28;46035;-83
2021/11/26 01:39:29;;;;;;;;;5.75;5.75;;;;;;;;5057574;28;45745;-82
2021/11/26 01:41:55;;;;;;;;;10.75;10.75;;;;;;;;5057011;28;45337;-82
2021/11/26 01:44:20;;;;;;;;;8.50;7.50;;;;;;;;5056837;28;45509;-83
2021/11/26 01:46:45;;;;;;;;;7.50;7.50;;;;;;;;5057035;28;45922;-83
2021/11/26 01:49:11;;;;;;;;;8.50;7.25;;;;;;;;5057195;27;45344;-83
2021/11/26 01:51:37;;;;;;;;;8.25;8.25;;;;;;;;5056092;28;45360;-82
2021/11/26 01:54:02;;;;;;;;;10.00;7.00;;;;;;;;5056402;28;45520;-83
2021/11/26 01:56:28;;;;;;;;;6.75;6.75;;;;;;;;5056894;28;46018;-82
2021/11/26 01:58:53;;;;;;;;;10.75;9.25;;;;;;;;5056817;28;45369;-83
2021/11/26 02:01:19;;;;;;;;;5.00;4.00;;;;;;;;5057120;27;45284;-82
2021/11/26 02:03:44;;;;;;;;;8.75;8.00;;;;;;;;5057303;28;45367;-82
2021/11/26 02:06:09;;;;;;;;;10.25;9.50;;;;;;;;5056131;28;46034;-82
2021/11/26 02:08:34;;;;;;;;;9.00;7.00;;;;;;;;5056758;28;45412;-82
2021/11/26 02:11:00;;;;;;;;;9.25;8.00;;;;;;;;5056822;28;45374;-82
2021/11/26 02:13:26;;;;;;;;;7.75;6.75;;;;;;;;5056516;28;45529;-82
2021/11/26 02:15:53;;;;;;;;;9.00;8.00;;;;;;;;5058897;28;45300;-83
2021/11/26 02:18:18;;;;;;;;;10.50;8.50;;;;;;;;5056713;28;45351;-83
2021/11/26 02:20:44;;;;;;;;;8.00;8.00;;;;;;;;5057119;28;45454;-83
2021/11/26 02:23:09;;;;;;;;;11.00;9.50;;;;;;;;5042984;28;45549;-84
2021/11/26 02:25:35;;;;;;;;;11.50;10.25;;;;;;;;5056373;27;46609;-83
2021/11/26 02:28:01;;;;;;;;;13.00;9.50;;;;;;;;5056302;28;45558;-83
2021/11/26 02:30:27;;;;;;;;;8.50;8.50;;;;;;;;5056582;28;45308;-83
2021/11/26 02:32:54;;;;;;;;;12.75;8.50;;;;;;;;5057580;28;45294;-83
2021/11/26 02:35:20;;;;;;;;;9.00;9.00;;;;;;;;5056598;28;46863;-83
2021/11/26 02:37:45;;;;;;;;;12.75;9.25;;;;;;;;5056789;28;45591;-82
2021/11/26 02:40:11;;;;;;;;;9.00;9.00;;;;;;;;5058586;28;45442;-82
2021/11/26 02:42:38;;;;;;;;;8.00;8.00;;;;;;;;5057293;28;45547;-83
2021/11/26 02:45:04;;;;;;;;;51.75;41.00;;;;;;;;5055729;28;45426;-83
2021/11/26 02:47:29;;;;;;;;;10.75;10.25;;;;;;;;5056406;28;45422;-83
2021/11/26 02:49:54;;;;;;;;;10.50;10.50;;;;;;;;5056022;28;45421;-83
2021/11/26 02:52:19;;;;;;;;;10.00;10.00;;;;;;;;5055987;28;45261;-84
2021/11/26 02:54:44;;;;;;;;;12.00;9.25;;;;;;;;5056320;28;46282;-84
2021/11/26 02:57:10;;;;;;;;;12.25;9.00;;;;;;;;5054862;28;45398;-83
2021/11/26 02:59:35;;;;;;;;;8.25;7.00;;;;;;;;5056618;28;45395;-83
2021/11/26 03:02:01;;;;;;;;;7.50;6.00;;;;;;;;5056448;28;45458;-83
2021/11/26 03:04:26;;;;;;;;;10.75;9.75;;;;;;;;5056232;28;45511;-83
2021/11/26 03:07:02;;;;;;;;;12.25;10.75;;;;;;;;5056211;28;45470;-83
2021/11/26 03:09:27;;;;;;;;;8.75;7.50;;;;;;;;5056499;28;45528;-83
2021/11/26 03:11:52;;;;;;;;;13.00;12.25;;;;;;;;5055188;28;45331;-82
2021/11/26 03:14:17;;;;;;;;;10.25;8.50;;;;;;;;5056039;28;46078;-82
2021/11/26 03:16:42;;;;;;;;;12.25;8.25;;;;;;;;5055918;28;45562;-83
2021/11/26 03:19:08;;;;;;;;;13.50;10.75;;;;;;;;5056139;28;45364;-82
2021/11/26 03:21:33;;;;;;;;;10.75;10.00;;;;;;;;5056003;28;45473;-83
2021/11/26 03:23:58;;;;;;;;;11.50;9.00;;;;;;;;5055005;28;46469;-83
2021/11/26 03:26:23;;;;;;;;;11.00;10.00;;;;;;;;5056999;28;45339;-83
2021/11/26 03:28:48;;;;;;;;;8.75;8.75;;;;;;;;5055912;28;45481;-82
2021/11/26 03:31:13;;;;;;;;;15.25;11.50;;;;;;;;5055701;28;45542;-83
2021/11/26 03:33:39;;;;;;;;;11.75;10.00;;;;;;;;5060166;28;46585;-84
2021/11/26 03:36:04;;;;;;;;;13.50;10.75;;;;;;;;5054911;28;45299;-82
2021/11/26 03:38:29;;;;;;;;;9.75;9.75;;;;;;;;5055773;28;45301;-83
2021/11/26 03:40:54;;;;;;;;;7.00;7.00;;;;;;;;5055428;28;45564;-83
2021/11/26 03:43:19;;;;;;;;;11.00;10.00;;;;;;;;5055597;28;46158;-83
2021/11/26 03:45:45;;;;;;;;;9.75;9.75;;;;;;;;5055710;28;45394;-84
2021/11/26 03:48:10;;;;;;;;;17.25;12.75;;;;;;;;5054815;28;45414;-83
2021/11/26 03:50:35;;;;;;;;;14.00;11.50;;;;;;;;5055481;28;45538;-83
2021/11/26 03:53:00;;;;;;;;;14.00;12.25;;;;;;;;5055063;28;46067;-82
2021/11/26 03:55:27;;;;;;;;;12.25;9.75;;;;;;;;5054933;27;45344;-83
2021/11/26 03:57:53;;;;;;;;;12.00;12.00;;;;;;;;5058806;28;45518;-82
2021/11/26 04:00:19;;;;;;;;;11.50;10.50;;;;;;;;5058166;28;45415;-83
2021/11/26 04:02:44;;;;;;;;;15.50;14.25;;;;;;;;5054607;28;46983;-84
2021/11/26 04:05:10;;;;;;;;;14.25;9.75;;;;;;;;5055090;28;45492;-83
2021/11/26 04:07:35;;;;;;;;;11.50;11.50;;;;;;;;5055238;28;45348;-83
2021/11/26 04:10:01;;;;;;;;;11.50;9.50;;;;;;;;5054659;28;46463;-83
2021/11/26 04:12:28;;;;;;;;;9.25;7.25;;;;;;;;5055303;28;45476;-83
2021/11/26 04:14:54;;;;;;;;;11.00;10.00;;;;;;;;5057584;28;45335;-83
2021/11/26 04:17:20;;;;;;;;;11.25;10.00;;;;;;;;5058559;28;45351;-83
2021/11/26 04:19:46;;;;;;;;;13.75;11.75;;;;;;;;5058758;28;45439;-83
2021/11/26 04:22:11;;;;;;;;;17.00;12.75;;;;;;;;5058288;28;45404;-83
2021/11/26 04:24:36;;;;;;;;;8.50;8.50;;;;;;;;5040089;27;45455;-83
2021/11/26 04:27:01;;;;;;;;;14.00;12.50;;;;;;;;5046649;28;45407;-83
2021/11/26 04:29:27;;;;;;;;;14.50;12.25;;;;;;;;5058605;28;45532;-82
2021/11/26 04:31:52;;;;;;;;;12.00;10.75;;;;;;;;5058101;28;45460;-82
2021/11/26 04:34:17;;;;;;;;;9.75;8.75;;;;;;;;5058158;28;45848;-83
2021/11/26 04:36:42;;;;;;;;;12.50;12.00;;;;;;;;5058277;28;45391;-82
2021/11/26 04:39:08;;;;;;;;;7.75;7.75;;;;;;;;5057062;28;45252;-81
2021/11/26 04:41:33;;;;;;;;;14.25;9.50;;;;;;;;5057531;28;45414;-82
2021/11/26 04:43:58;;;;;;;;;16.75;12.75;;;;;;;;5057365;27;45386;-84
2021/11/26 04:46:24;;;;;;;;;15.50;13.25;;;;;;;;5057335;28;45517;-84
2021/11/26 04:48:49;;;;;;;;;13.50;11.75;;;;;;;;5059064;28;45250;-83
2021/11/26 04:51:14;;;;;;;;;15.00;12.25;;;;;;;;5056861;28;45463;-83
2021/11/26 04:53:39;;;;;;;;;11.00;10.00;;;;;;;;5057666;28;45487;-83
2021/11/26 04:56:05;;;;;;;;;12.50;12.00;;;;;;;;5057695;27;45294;-83
2021/11/26 04:58:35;;;;;;;;;15.00;13.25;;;;;;;;5057372;28;45321;-82
2021/11/26 05:01:00;;;;;;;;;14.50;14.50;;;;;;;;5057395;27;47158;-82
2021/11/26 05:03:25;;;;;;;;;13.50;11.50;;;;;;;;5064370;28;45469;-81
2021/11/26 05:05:50;;;;;;;;;17.00;15.00;;;;;;;;5070488;28;45594;-83
2021/11/26 05:08:19;;;;;;;;;16.25;15.75;;;;;;;;5063170;28;45351;-83
2021/11/26 05:10:51;;;;;;;;;12.50;12.00;;;;;;;;5058272;28;46371;-83
2021/11/26 05:13:16;;;;;;;;;18.00;14.00;;;;;;;;5057705;27;45451;-84
2021/11/26 05:15:41;;;;;;;;;18.00;16.25;;;;;;;;5058005;28;45637;-83
2021/11/26 05:18:06;;;;;;;;;15.00;14.25;;;;;;;;5057446;28;45204;-84
2021/11/26 05:20:33;;;;;;;;;14.00;14.00;;;;;;;;5056794;28;45510;-83
2021/11/26 05:22:59;;;;;;;;;16.50;14.25;;;;;;;;5058277;28;45446;-84
2021/11/26 05:25:24;;;;;;;;;13.75;12.25;;;;;;;;5058317;28;45403;-82
2021/11/26 05:27:50;;;;;;;;;20.00;15.25;;;;;;;;5057094;28;45280;-84
2021/11/26 05:30:15;;;;;;;;;15.50;13.00;;;;;;;;5056009;28;46185;-84
2021/11/26 05:32:41;;;;;;;;;21.25;17.75;;;;;;;;5043293;28;45591;-84
2021/11/26 05:35:08;;;;;;;;;11.00;10.00;;;;;;;;5057419;28;45265;-84
2021/11/26 05:37:33;;;;;;;;;20.50;16.50;;;;;;;;5058465;28;45351;-84
2021/11/26 05:39:58;;;;;;;;;19.75;16.50;;;;;;;;5057066;28;45826;-85
2021/11/26 05:42:23;;;;;;;;;11.50;11.50;;;;;;;;5057007;28;45360;-84
2021/11/26 05:44:49;;;;;;;;;15.25;14.00;;;;;;;;5055998;28;45390;-84
2021/11/26 05:47:14;;;;;;;;;17.50;13.50;;;;;;;;5056540;28;45529;-83
2021/11/26 05:49:39;;;;;;;;;16.25;15.25;;;;;;;;5055861;28;46287;-84
2021/11/26 05:52:04;;;;;;;;;17.00;13.25;;;;;;;;5037473;28;45428;-83
2021/11/26 05:54:30;;;;;;;;;17.50;10.50;;;;;;;;5056269;28;45859;-84
2021/11/26 05:56:55;;;;;;;;;11.00;8.50;;;;;;;;5057008;28;45324;-84
2021/11/26 05:59:20;;;;;;;;;18.00;17.25;;;;;;;;5055734;28;46289;-84
2021/11/26 06:01:45;;;;;;;;;16.00;12.25;;;;;;;;5057621;28;45452;-83
2021/11/26 06:04:11;;;;;;;;;13.00;12.75;;;;;;;;5058188;27;45363;-83
2021/11/26 06:06:36;;;;;;;;;10.25;8.75;;;;;;;;5055953;28;45514;-84
2021/11/26 06:09:01;;;;;;;;;12.75;9.00;;;;;;;;5056559;28;47361;-83
2021/11/26 06:11:26;;;;;;;;;15.50;10.50;;;;;;;;5058944;28;45401;-84
2021/11/26 06:13:52;;;;;;;;;11.25;8.75;;;;;;;;5056429;27;45554;-84
2021/11/26 06:16:17;;;;;;;;;8.75;8.50;;;;;;;;5056364;28;45495;-82
2021/11/26 06:18:42;;;;;;;;;10.75;8.25;;;;;;;;5055805;28;46267;-84
2021/11/26 06:21:07;;;;;;;;;11.50;8.50;;;;;;;;5054769;28;45463;-77
2021/11/26 06:23:33;;;;;;;;;11.25;10.00;;;;;;;;5054813;28;45266;-78
2021/11/26 06:25:58;;;;;;;;;8.75;8.25;;;;;;;;5055237;28;45452;-77
2021/11/26 06:28:23;;;;;;;;;10.00;9.25;;;;;;;;5055078;28;45429;-78
2021/11/26 06:30:49;;;;;;;;;13.75;11.50;;;;;;;;5036894;28;45355;-77
2021/11/26 06:33:14;;;;;;;;;10.50;9.00;;;;;;;;5053739;28;45498;-77
2021/11/26 06:35:39;;;;;;;;;10.00;9.00;;;;;;;;5054434;28;45400;-78
2021/11/26 06:38:04;;;;;;;;;13.50;10.50;;;;;;;;5056733;28;46054;-78
2021/11/26 06:40:30;;;;;;;;;10.75;6.50;;;;;;;;5055342;28;45367;-78
2021/11/26 06:42:55;;;;;;;;;10.25;10.25;;;;;;;;5036613;28;45348;-77
2021/11/26 06:45:21;;;;;;;;;9.25;9.25;;;;;;;;5053903;28;45496;-77
2021/11/26 06:47:47;;;;;;;;;12.50;9.00;;;;;;;;5054624;28;46967;-77
2021/11/26 06:50:13;;;;;;;;;15.00;9.25;;;;;;;;5053978;28;45426;-77
2021/11/26 06:52:38;;;;;;;;;10.75;10.00;;;;;;;;5054394;28;45445;-76
2021/11/26 06:55:05;;;;;;;;;8.25;7.75;;;;;;;;5054880;28;45305;-75
2021/11/26 06:57:31;;;;;;;;;9.25;9.00;;;;;;;;5055167;28;46456;-75
2021/11/26 06:59:56;;;;;;;;;15.25;10.00;;;;;;;;5053458;28;45373;-77
2021/11/26 07:02:21;;;;;;;;;9.00;8.00;;;;;;;;5057205;28;45461;-82
2021/11/26 07:04:48;;;;;;;;;15.25;9.00;;;;;;;;5055808;28;45348;-82
2021/11/26 07:07:13;;;;;;;;;8.75;7.50;;;;;;;;5061302;27;46335;-83
2021/11/26 07:09:39;;;;;;;;;10.75;10.75;;;;;;;;5056972;28;45241;-81
2021/11/26 07:12:09;;;;;;;;;8.75;8.25;;;;;;;;5055737;28;45214;-83
2021/11/26 07:14:34;;;;;;;;;10.50;8.00;;;;;;;;5057457;28;45311;-78
2021/11/26 07:16:59;;;;;;;;;10.75;10.75;;;;;;;;5054475;28;45538;-81
2021/11/26 07:19:25;;;;;;;;;10.50;9.00;;;;;;;;5054221;27;45301;-81
2021/11/26 07:21:50;;;;;;;;;13.00;11.00;;;;;;;;5051714;28;45567;-81
2021/11/26 07:24:15;;;;;;;;;10.00;7.50;;;;;;;;5052480;28;45385;-81
2021/11/26 07:26:41;;;;;;;;;13.00;10.75;;;;;;;;5053040;27;47167;-82
2021/11/26 07:29:06;;;;;;;;;11.00;10.00;;;;;;;;5052701;28;45474;-82
2021/11/26 07:31:31;;;;;;;;;14.75;11.50;;;;;;;;5055029;28;45458;-81
2021/11/26 07:33:56;;;;;;;;;16.00;14.00;;;;;;;;5053627;28;45480;-82
2021/11/26 07:36:22;;;;;;;;;9.25;8.50;;;;;;;;5052054;28;46108;-82
2021/11/26 07:38:47;;;;;;;;;15.25;10.00;;;;;;;;5055725;28;45310;-82
2021/11/26 07:41:12;;;;;;;;;14.00;12.75;;;;;;;;5042018;28;45446;-82
2021/11/26 07:43:37;;;;;;;;;16.00;13.50;;;;;;;;5055760;28;45359;-82
2021/11/26 07:46:03;;;;;;;;;11.75;11.75;;;;;;;;5058515;28;46121;-81
2021/11/26 07:48:29;;;;;;;;;15.00;11.50;;;;;;;;5060647;28;45365;-81
2021/11/26 07:50:55;;;;;;;;;15.75;14.75;;;;;;;;5058105;28;45364;-82
2021/11/26 07:53:21;;;;;;;;;12.50;10.00;;;;;;;;5060937;28;45320;-82
2021/11/26 07:55:46;;;;;;;;;12.75;10.00;;;;;;;;5046123;28;47350;-83
2021/11/26 07:58:12;;;;;;;;;17.00;12.25;;;;;;;;5056220;28;45307;-83
2021/11/26 08:00:37;;;;;;;;;15.50;9.50;;;;;;;;5057444;28;45487;-84
2021/11/26 08:03:02;;;;;;;;;15.00;12.00;;;;;;;;5056359;28;45608;-83
2021/11/26 08:05:29;;;;;;;;;12.00;10.50;;;;;;;;5056748;28;45835;-84
2021/11/26 08:07:55;;;;;;;;;13.00;13.00;;;;;;;;5045202;28;45544;-82
2021/11/26 08:10:20;;;;;;;;;8.25;7.00;;;;;;;;5057890;28;45357;-83
2021/11/26 08:12:45;;;;;;;;;7.50;4.50;;;;;;;;5040514;28;45502;-83
2021/11/26 08:15:11;;;;;;;;;14.50;11.00;;;;;;;;5057249;28;46359;-83
2021/11/26 08:17:37;;;;;;;;;15.75;15.00;;;;;;;;5057007;28;45549;-81
2021/11/26 08:20:03;;;;;;;;;17.25;14.50;;;;;;;;5058125;28;45427;-83
2021/11/26 08:22:29;;;;;;;;;12.00;9.00;;;;;;;;5055334;28;45468;-83
2021/11/26 08:24:54;;;;;;;;;8.75;8.75;;;;;;;;5038329;28;47379;-82
2021/11/26 08:27:19;;;;;;;;;11.00;9.50;;;;;;;;5054813;28;45339;-78
2021/11/26 08:29:44;;;;;;;;;10.50;9.50;;;;;;;;5056238;28;45462;-78
2021/11/26 08:32:10;;;;;;;;;10.00;10.00;;;;;;;;5055687;28;45379;-77
2021/11/26 08:34:35;;;;;;;;;9.00;9.00;;;;;;;;5042427;28;46958;-78
2021/11/26 08:37:00;;;;;;;;;9.00;9.00;;;;;;;;5056673;28;45530;-79
2021/11/26 08:39:25;;;;;;;;;13.00;10.50;;;;;;;;5060010;28;46429;-78
2021/11/26 08:41:51;;;;;;;;;12.25;8.50;;;;;;;;5062101;28;45414;-84
2021/11/26 08:44:16;;;;;;;;;9.00;9.00;;;;;;;;5062613;28;46377;-79
2021/11/26 08:46:41;;;;;;;;;13.50;10.75;;;;;;;;5058530;28;45520;-77
2021/11/26 08:49:06;;;;;;;;;10.25;9.25;;;;;;;;5055892;27;45395;-78
2021/11/26 08:51:35;;;;;;;;;14.75;10.00;;;;;;;;5056691;28;45475;-78
2021/11/26 08:54:01;;;;;;;;;11.25;10.00;;;;;;;;5055285;28;46677;-83
2021/11/26 08:56:26;;;;;;;;;11.25;10.00;;;;;;;;5058806;28;45429;-84
2021/11/26 08:58:52;;;;;;;;;8.50;8.50;;;;;;;;5045233;28;45444;-83
2021/11/26 09:01:17;;;;;;;;;13.75;9.25;;;;;;;;5055549;28;45467;-84
2021/11/26 09:03:47;;;;;;;;;4.50;4.25;;;;;;;;5056780;28;47013;-84
2021/11/26 09:06:14;;;;;;;;;9.50;8.50;;;;;;;;5056598;28;45329;-82
2021/11/26 09:08:39;;;;;;;;;0.00;0.00;;;;;;;;5057838;28;45521;-84
2021/11/26 09:11:04;;;;;;;;;10.25;9.00;;;;;;;;5062924;28;45324;-85
2021/11/26 09:13:29;;;;;;;;;7.75;6.75;;;;;;;;5057729;28;45655;-84
2021/11/26 09:15:55;;;;;;;;;11.50;9.00;;;;;;;;5056571;28;45589;-83
2021/11/26 09:18:20;;;;;;;;;8.75;8.00;;;;;;;;5056267;28;45431;-81
2021/11/26 09:20:49;;;;;;;;;8.25;7.25;;;;;;;;5058929;28;45351;-81
2021/11/26 09:23:15;;;;;;;;;7.50;6.75;;;;;;;;5054276;28;45298;-82
2021/11/26 09:25:40;;;;;;;;;10.50;9.00;;;;;;;;5058570;28;45495;-83
2021/11/26 09:28:05;;;;;;;;;12.00;8.00;;;;;;;;5060272;27;45317;-82
2021/11/26 09:30:31;;;;;;;;;6.00;6.00;;;;;;;;5040619;28;44966;-83
2021/11/26 09:32:57;;;;;;;;;8.25;6.50;;;;;;;;5041887;28;48290;-84
2021/11/26 09:35:25;;;;;;;;;6.25;4.25;;;;;;;;5051871;28;45718;-84
2021/11/26 09:37:50;;;;;;;;;6.25;4.25;;;;;;;;5064400;28;45367;-85
2021/11/26 09:40:16;;;;;;;;;5.50;4.50;;;;;;;;5042180;28;45407;-85
2021/11/26 09:42:44;;;;;;;;;7.75;5.25;;;;;;;;5056773;28;45566;-84
2021/11/26 09:45:17;;;;;;;;;5.25;4.00;;;;;;;;5050868;28;45403;-84
2021/11/26 09:47:42;;;;;;;;;6.00;5.00;;;;;;;;5041768;28;45562;-85
2021/11/26 09:50:07;;;;;;;;;9.00;4.00;;;;;;;;5056661;28;45455;-85
2021/11/26 09:52:36;;;;;;;;;5.25;4.00;;;;;;;;5054549;28;45550;-84
2021/11/26 09:55:01;;;;;;;;;12.00;7.75;;;;;;;;5049980;28;45430;-85
2021/11/26 09:57:27;;;;;;;;;9.00;8.75;;;;;;;;5055643;28;45491;-84
2021/11/26 09:59:52;;;;;;;;;6.50;6.00;;;;;;;;5055289;28;45416;-83
2021/11/26 10:02:20;;;;;;;;;7.00;6.00;;;;;;;;5054063;28;46095;-81
2021/11/26 10:04:59;;;;;;;;;9.50;6.00;;;;;;;;5054384;28;45379;-80
2021/11/26 10:07:24;;;;;;;;;13.00;10.75;;;;;;;;5055405;28;45329;-80
2021/11/26 10:09:50;;;;;;;;;7.25;5.50;;;;;;;;5055308;28;45158;-81
2021/11/26 10:12:16;;;;;;;;;13.25;9.25;;;;;;;;5052079;28;47223;-80
2021/11/26 10:14:43;;;;;;;;;6.50;6.00;;;;;;;;5055539;28;45464;-79
2021/11/26 10:17:13;;;;;;;;;5.50;3.75;;;;;;;;5055307;28;45529;-80
2021/11/26 10:19:48;;;;;;;;;5.75;5.00;;;;;;;;5055993;28;45570;-81
2021/11/26 10:22:16;;;;;;;;;3.25;3.25;;;;;;;;5054040;28;45454;-80
2021/11/26 10:24:41;;;;;;;;;3.50;3.50;;;;;;;;5039639;28;45347;-79
2021/11/26 10:27:06;;;;;;;;;4.00;2.50;;;;;;;;5055573;28;45317;-81
2021/11/26 10:29:38;;;;;;;;;4.50;4.50;;;;;;;;5057737;28;45349;-81
2021/11/26 10:32:03;;;;;;;;;4.00;2.25;;;;;;;;5055313;27;45563;-82
2021/11/26 10:34:28;;;;;;;;;2.50;2.50;;;;;;;;5039351;28;45470;-82
2021/11/26 10:36:54;;;;;;;;;2.00;2.00;;;;;;;;5054870;28;45428;-81
2021/11/26 10:39:20;;;;;;;;;2.00;2.00;;;;;;;;5053827;28;45382;-81
2021/11/26 10:41:50;;;;;;;;;5.75;4.00;;;;;;;;5054256;28;46121;-83
2021/11/26 10:44:18;;;;;;;;;5.50;4.00;;;;;;;;5054685;28;45420;-82
2021/11/26 10:46:59;;;;;;;;;7.00;5.25;;;;;;;;5054189;28;45247;-82
2021/11/26 10:49:40;;;;;;;;;6.00;3.25;;;;;;;;5056861;28;45476;-84
2021/11/26 10:56:40;;;;;;;;;9.00;7.75;;;;;;;;5061758;28;46167;-84
2021/11/26 10:57:54;;;;;;;;;6.75;5.25;;;;;;;;5054627;28;45542;-86
2021/11/26 11:00:21;;;;;;;;;5.50;4.50;;;;;;;;5051463;28;45569;-80
2021/11/26 11:02:48;;;;;;;;;5.50;3.75;;;;;;;;5054486;28;45395;-83
2021/11/26 11:05:25;;;;;;;;;4.00;4.00;;;;;;;;5055040;28;45478;-87
2021/11/26 11:07:51;;;;;;;;;4.50;3.50;;;;;;;;5055143;27;45348;-79
2021/11/26 11:10:31;;;;;;;;;8.50;5.75;;;;;;;;5055655;28;45539;-85
2021/11/26 11:12:58;;;;;;;;;9.75;5.00;;;;;;;;5053931;28;46129;-84
2021/11/26 11:15:23;;;;;;;;;12.00;9.50;;;;;;;;5037371;28;45968;-81
2021/11/26 11:17:49;;;;;;;;;11.00;11.00;;;;;;;;5056319;28;45669;-87
2021/11/26 11:20:16;;;;;;;;;3.25;3.25;;;;;;;;5045225;28;45637;-87
2021/11/26 11:22:42;;;;;;;;;5.00;5.00;;;;;;;;5054112;28;46428;-87
2021/11/26 11:25:09;;;;;;;;;7.50;5.75;;;;;;;;5057199;28;45335;-81
2021/11/26 11:27:34;;;;;;;;;4.00;2.50;;;;;;;;5058183;28;45423;-84
2021/11/26 11:30:00;;;;;;;;;5.50;5.00;;;;;;;;5057210;28;45452;-84
2021/11/26 11:32:26;;;;;;;;;5.00;3.50;;;;;;;;5057975;28;45506;-84
2021/11/26 11:34:53;;;;;;;;;9.75;7.25;;;;;;;;5057937;28;45371;-84
2021/11/26 11:37:18;;;;;;;;;7.50;5.75;;;;;;;;5055381;28;45471;-88
2021/11/26 11:39:50;;;;;;;;;5.00;4.00;;;;;;;;5062107;28;45532;-89
2021/11/26 11:42:29;;;;;;;;;4.75;4.25;;;;;;;;5060186;28;45339;-90
2021/11/26 11:44:56;;;;;;;;;4.50;3.25;;;;;;;;5063739;28;45766;-88
2021/11/26 11:47:23;;;;;;;;;5.00;5.00;;;;;;;;5078094;27;45343;-88
2021/11/26 11:49:48;;;;;;;;;8.50;5.50;;;;;;;;5065545;28;45342;-83
2021/11/26 11:52:14;;;;;;;;;2.25;2.00;;;;;;;;5059541;28;46430;-85
2021/11/26 11:54:44;;;;;;;;;6.00;6.00;;;;;;;;5061843;28;45481;-84
2021/11/26 11:57:23;;;;;;;;;5.50;5.50;;;;;;;;5054202;28;45356;-87
2021/11/26 11:59:50;;;;;;;;;11.75;8.00;;;;;;;;5059537;28;45279;-85
2021/11/26 12:02:22;;;;;;;;;6.25;5.25;;;;;;;;5057676;27;45814;-86
2021/11/26 12:04:48;;;;;;;;;6.00;4.00;;;;;;;;5056768;28;45489;-81
2021/11/26 12:07:25;;;;;;;;;5.25;4.00;;;;;;;;5057854;28;45530;-82
2021/11/26 12:10:00;;;;;;;;;7.00;6.00;;;;;;;;5042568;28;45217;-81
2021/11/26 12:12:25;;;;;;;;;4.75;3.00;;;;;;;;5056860;28;45434;-82
2021/11/26 12:14:52;;;;;;;;;8.50;6.25;;;;;;;;5042618;28;45270;-81
2021/11/26 12:17:31;;;;;;;;;8.75;6.75;;;;;;;;5044218;28;45730;-76
2021/11/26 12:19:57;;;;;;;;;4.25;4.00;;;;;;;;5052213;28;45587;-75
2021/11/26 12:22:30;;;;;;;;;5.25;5.25;;;;;;;;5048931;28;46579;-75
2021/11/26 12:24:57;;;;;;;;;7.75;4.25;;;;;;;;5048205;28;45585;-75
2021/11/26 12:27:25;;;;;;;;;5.75;5.75;;;;;;;;5048043;28;45436;-76
2021/11/26 12:29:52;;;;;;;;;6.50;4.75;;;;;;;;5049706;28;45594;-80
2021/11/26 12:32:23;;;;;;;;;5.25;4.00;;;;;;;;5038481;28;47410;-80
2021/11/26 12:34:50;;;;;;;;;5.25;5.25;;;;;;;;5042273;28;45550;-83
2021/11/26 12:37:22;;;;;;;;;5.25;4.25;;;;;;;;5045736;28;45494;-87
2021/11/26 12:39:48;;;;;;;;;6.25;4.00;;;;;;;;5050321;28;46090;-80
2021/11/26 12:42:15;;;;;;;;;4.25;3.75;;;;;;;;5049985;28;46199;-78
2021/11/26 12:44:40;;;;;;;;;6.00;4.00;;;;;;;;5052332;28;45355;-84
2021/11/26 12:47:09;;;;;;;;;7.75;5.75;;;;;;;;5054693;28;45532;-81
2021/11/26 12:52:07;;;;;;;;;3.00;3.00;;;;;;;;5056544;28;45398;-82
2021/11/26 12:54:40;;;;;;;;;3.00;3.00;;;;;;;;5055673;28;45407;-81
2021/11/26 12:57:07;;;;;;;;;7.25;5.75;;;;;;;;5054688;28;45260;-81
2021/11/26 12:59:43;;;;;;;;;5.25;4.00;;;;;;;;5055981;28;45249;-81
2021/11/26 13:02:09;;;;;;;;;5.75;4.00;;;;;;;;5055589;28;46332;-81
2021/11/26 13:04:44;;;;;;;;;2.75;2.75;;;;;;;;5054797;28;45503;-80
2021/11/26 13:07:10;;;;;;;;;3.50;3.50;;;;;;;;5056106;28;45579;-80
2021/11/26 13:09:39;;;;;;;;;8.75;5.00;;;;;;;;5055705;28;45865;-81
2021/11/26 13:12:05;;;;;;;;;8.50;7.50;;;;;;;;5056082;28;46336;-80
2021/11/26 13:14:40;;;;;;;;;2.50;2.50;;;;;;;;5058515;27;45388;-82
2021/11/26 13:17:05;;;;;;;;;3.75;3.75;;;;;;;;5057280;28;45421;-81
2021/11/26 13:19:31;;;;;;;;;7.75;5.00;;;;;;;;5055121;27;45403;-82
2021/11/26 13:21:56;;;;;;;;;2.50;2.50;;;;;;;;5054932;28;45460;-82
2021/11/26 13:24:22;;;;;;;;;4.00;4.00;;;;;;;;5053888;28;45523;-81
2021/11/26 13:26:48;;;;;;;;;5.00;3.00;;;;;;;;5054856;28;45344;-82
2021/11/26 13:29:13;;;;;;;;;4.25;4.25;;;;;;;;5055740;28;45459;-82
2021/11/26 13:31:43;;;;;;;;;3.50;2.00;;;;;;;;5056653;28;46221;-81
2021/11/26 13:34:09;;;;;;;;;4.50;4.00;;;;;;;;5055396;28;45399;-81
2021/11/26 13:36:34;;;;;;;;;2.00;2.00;;;;;;;;5055704;28;45344;-80
2021/11/26 13:39:07;;;;;;;;;4.25;3.50;;;;;;;;5054181;28;45502;-82
2021/11/26 13:41:33;;;;;;;;;3.25;2.50;;;;;;;;5054590;28;45474;-82
2021/11/26 13:44:19;;;;;;;;;4.50;3.00;;;;;;;;5055078;28;45471;-81
2021/11/26 13:46:46;;;;;;;;;4.75;3.00;;;;;;;;5055923;28;45327;-81
2021/11/26 13:49:13;;;;;;;;;3.25;3.25;;;;;;;;5054555;28;45335;-80
2021/11/26 13:51:40;;;;;;;;;6.25;5.25;;;;;;;;5055594;28;45424;-82
2021/11/26 13:54:08;;;;;;;;;4.00;3.00;;;;;;;;5047313;28;46776;-80
2021/11/26 13:56:35;;;;;;;;;5.00;3.50;;;;;;;;5055646;28;45428;-81
2021/11/26 13:59:05;;;;;;;;;2.75;2.00;;;;;;;;5056928;27;45426;-82
2021/11/26 14:01:32;;;;;;;;;3.00;2.00;;;;;;;;5055266;28;45973;-81
2021/11/26 14:03:59;;;;;;;;;3.00;2.00;;;;;;;;5054972;28;45791;-82
2021/11/26 14:06:24;;;;;;;;;3.00;3.00;;;;;;;;5054191;28;45229;-82
2021/11/26 14:08:54;;;;;;;;;3.00;2.25;;;;;;;;5056003;28;45440;-81
2021/11/26 14:11:29;;;;;;;;;3.50;3.50;;;;;;;;5054774;28;47229;-81
2021/11/26 14:13:55;;;;;;;;;3.00;2.00;;;;;;;;5054047;28;45467;-82
2021/11/26 14:16:22;;;;;;;;;3.75;2.25;;;;;;;;5054335;28;45386;-81
2021/11/26 14:18:54;;;;;;;;;3.00;3.00;;;;;;;;5056786;28;45365;-80
2021/11/26 14:21:20;;;;;;;;;3.00;3.00;;;;;;;;5053807;28;45497;-81
2021/11/26 14:23:55;;;;;;;;;1.00;1.00;;;;;;;;5054370;28;45453;-82
2021/11/26 14:26:20;;;;;;;;;4.25;4.25;;;;;;;;5054595;28;45305;-82
2021/11/26 14:28:46;;;;;;;;;4.00;3.25;;;;;;;;5054206;28;45579;-82
2021/11/26 14:31:12;;;;;;;;;5.00;3.00;;;;;;;;5054547;27;46209;-81
2021/11/26 14:33:37;;;;;;;;;7.00;3.00;;;;;;;;5036341;28;45439;-83
2021/11/26 14:36:10;;;;;;;;;3.75;2.50;;;;;;;;5053015;28;45461;-81